sensor_id;sensor_type;location;lat;lon;timestamp;pressure;altitude;pressure_sealevel;temperature;humidity
36378;BME280;22402;42.746;23.606;2022-09-27T00:01:05;92625.25;;;16.06;91.34
36378;BME280;22402;42.746;23.606;2022-09-27T00:03:31;92612.09;;;16.06;92.31
36378;BME280;22402;42.746;23.606;2022-09-27T00:06:24;92613.28;;;16.04;92.02
36378;BME280;22402;42.746;23.606;2022-09-27T00:08:50;92612.28;;;16.05;93.03
36378;BME280;22402;42.746;23.606;2022-09-27T00:11:28;92613.88;;;16.06;93.23
36378;BME280;22402;42.746;23.606;2022-09-27T00:13:54;92609.88;;;16.03;93.51
36378;BME280;22402;42.746;23.606;2022-09-27T00:16:21;92609.47;;;16.06;93.64
36378;BME280;22402;42.746;23.606;2022-09-27T00:18:47;92614.72;;;16.06;93.20
36378;BME280;22402;42.746;23.606;2022-09-27T00:21:13;92606.00;;;16.06;93.67
36378;BME280;22402;42.746;23.606;2022-09-27T00:23:39;92612.91;;;16.13;93.05
36378;BME280;22402;42.746;23.606;2022-09-27T00:26:05;92616.59;;;16.26;94.40
36378;BME280;22402;42.746;23.606;2022-09-27T00:28:31;92616.81;;;16.31;93.71
36378;BME280;22402;42.746;23.606;2022-09-27T00:30:57;92614.41;;;16.36;93.69
36378;BME280;22402;42.746;23.606;2022-09-27T00:33:22;92614.81;;;16.46;94.71
36378;BME280;22402;42.746;23.606;2022-09-27T00:35:48;92632.66;;;16.57;93.72
36378;BME280;22402;42.746;23.606;2022-09-27T00:38:13;92629.00;;;16.58;92.70
36378;BME280;22402;42.746;23.606;2022-09-27T00:40:39;92634.25;;;16.58;92.90
36378;BME280;22402;42.746;23.606;2022-09-27T00:43:15;92630.41;;;16.68;93.22
36378;BME280;22402;42.746;23.606;2022-09-27T00:45:40;92641.16;;;16.73;94.08
36378;BME280;22402;42.746;23.606;2022-09-27T00:48:06;92634.09;;;16.80;95.29
36378;BME280;22402;42.746;23.606;2022-09-27T00:50:34;92626.41;;;16.85;96.56
36378;BME280;22402;42.746;23.606;2022-09-27T00:55:37;92628.25;;;16.91;97.06
36378;BME280;22402;42.746;23.606;2022-09-27T00:58:04;92626.41;;;16.98;96.03
36378;BME280;22402;42.746;23.606;2022-09-27T01:00:30;92629.66;;;17.00;95.99
36378;BME280;22402;42.746;23.606;2022-09-27T01:02:56;92623.56;;;17.06;96.47
36378;BME280;22402;42.746;23.606;2022-09-27T01:05:24;92623.00;;;17.04;95.36
36378;BME280;22402;42.746;23.606;2022-09-27T01:07:51;92617.91;;;17.03;95.30
36378;BME280;22402;42.746;23.606;2022-09-27T01:10:17;92622.38;;;17.02;95.17
36378;BME280;22402;42.746;23.606;2022-09-27T01:13:01;92604.34;;;16.99;95.83
36378;BME280;22402;42.746;23.606;2022-09-27T01:18:57;92597.06;;;16.88;96.02
36378;BME280;22402;42.746;23.606;2022-09-27T01:21:40;92592.59;;;16.82;96.31
36378;BME280;22402;42.746;23.606;2022-09-27T01:38:11;92571.28;;;16.50;98.36
36378;BME280;22402;42.746;23.606;2022-09-27T01:41:05;92585.47;;;16.49;99.51
36378;BME280;22402;42.746;23.606;2022-09-27T01:46:06;92587.28;;;16.42;99.70
36378;BME280;22402;42.746;23.606;2022-09-27T01:48:36;92586.06;;;16.38;99.25
36378;BME280;22402;42.746;23.606;2022-09-27T01:53:45;92581.59;;;16.38;100.00
36378;BME280;22402;42.746;23.606;2022-09-27T01:56:24;92580.41;;;16.41;100.00
36378;BME280;22402;42.746;23.606;2022-09-27T02:01:25;92575.72;;;16.30;100.00
36378;BME280;22402;42.746;23.606;2022-09-27T02:03:53;92573.91;;;16.30;100.00
36378;BME280;22402;42.746;23.606;2022-09-27T02:06:23;92580.78;;;16.31;100.00
36378;BME280;22402;42.746;23.606;2022-09-27T02:09:04;92580.16;;;16.29;100.00
36378;BME280;22402;42.746;23.606;2022-09-27T02:11:29;92576.13;;;16.27;100.00
36378;BME280;22402;42.746;23.606;2022-09-27T02:17:21;92588.22;;;16.14;100.00
36378;BME280;22402;42.746;23.606;2022-09-27T02:20:21;92570.03;;;16.06;100.00
36378;BME280;22402;42.746;23.606;2022-09-27T02:25:55;92560.09;;;16.02;100.00
36378;BME280;22402;42.746;23.606;2022-09-27T02:28:29;92559.06;;;16.03;100.00
36378;BME280;22402;42.746;23.606;2022-09-27T02:30:56;92558.09;;;16.04;100.00
36378;BME280;22402;42.746;23.606;2022-09-27T02:36:09;92545.13;;;16.02;100.00
36378;BME280;22402;42.746;23.606;2022-09-27T02:38:34;92539.25;;;16.00;100.00
36378;BME280;22402;42.746;23.606;2022-09-27T02:41:00;92531.19;;;16.02;100.00
36378;BME280;22402;42.746;23.606;2022-09-27T02:43:28;92523.28;;;15.95;100.00
36378;BME280;22402;42.746;23.606;2022-09-27T02:51:26;92499.41;;;15.83;100.00
36378;BME280;22402;42.746;23.606;2022-09-27T02:56:59;92495.13;;;15.82;100.00
36378;BME280;22402;42.746;23.606;2022-09-27T02:59:52;92502.22;;;15.82;100.00
36378;BME280;22402;42.746;23.606;2022-09-27T03:02:31;92511.09;;;15.81;100.00
36378;BME280;22402;42.746;23.606;2022-09-27T03:05:03;92512.13;;;15.80;100.00
36378;BME280;22402;42.746;23.606;2022-09-27T03:07:31;92507.69;;;15.80;100.00
36378;BME280;22402;42.746;23.606;2022-09-27T03:09:56;92508.09;;;15.84;100.00
36378;BME280;22402;42.746;23.606;2022-09-27T03:12:22;92490.09;;;15.81;100.00
36378;BME280;22402;42.746;23.606;2022-09-27T03:14:48;92499.97;;;15.79;100.00
36378;BME280;22402;42.746;23.606;2022-09-27T03:17:14;92498.59;;;15.83;100.00
36378;BME280;22402;42.746;23.606;2022-09-27T03:19:39;92489.28;;;15.80;100.00
36378;BME280;22402;42.746;23.606;2022-09-27T03:22:04;92479.19;;;15.84;100.00
36378;BME280;22402;42.746;23.606;2022-09-27T03:24:30;92477.56;;;15.83;100.00
36378;BME280;22402;42.746;23.606;2022-09-27T03:26:55;92467.44;;;15.80;100.00
36378;BME280;22402;42.746;23.606;2022-09-27T03:29:20;92478.38;;;15.77;100.00
36378;BME280;22402;42.746;23.606;2022-09-27T03:31:46;92474.72;;;15.78;100.00
36378;BME280;22402;42.746;23.606;2022-09-27T03:34:11;92463.00;;;15.74;100.00
36378;BME280;22402;42.746;23.606;2022-09-27T03:36:36;92458.72;;;15.72;100.00
36378;BME280;22402;42.746;23.606;2022-09-27T03:39:02;92446.22;;;15.75;100.00
36378;BME280;22402;42.746;23.606;2022-09-27T03:41:30;92445.59;;;15.72;100.00
36378;BME280;22402;42.746;23.606;2022-09-27T03:43:56;92450.03;;;15.72;100.00
36378;BME280;22402;42.746;23.606;2022-09-27T03:46:21;92443.97;;;15.71;100.00
36378;BME280;22402;42.746;23.606;2022-09-27T03:48:47;92438.09;;;15.69;100.00
36378;BME280;22402;42.746;23.606;2022-09-27T03:51:12;92437.50;;;15.67;100.00
36378;BME280;22402;42.746;23.606;2022-09-27T03:53:37;92443.09;;;15.64;100.00
36378;BME280;22402;42.746;23.606;2022-09-27T03:56:02;92445.75;;;15.64;100.00
36378;BME280;22402;42.746;23.606;2022-09-27T03:58:28;92441.91;;;15.60;100.00
36378;BME280;22402;42.746;23.606;2022-09-27T04:00:53;92440.69;;;15.56;100.00
36378;BME280;22402;42.746;23.606;2022-09-27T04:03:19;92439.06;;;15.55;100.00
36378;BME280;22402;42.746;23.606;2022-09-27T04:05:47;92441.69;;;15.55;100.00
36378;BME280;22402;42.746;23.606;2022-09-27T04:08:12;92444.91;;;15.50;100.00
36378;BME280;22402;42.746;23.606;2022-09-27T04:10:38;92448.75;;;15.48;100.00
36378;BME280;22402;42.746;23.606;2022-09-27T04:13:04;92447.72;;;15.49;100.00
36378;BME280;22402;42.746;23.606;2022-09-27T04:15:29;92440.63;;;15.43;100.00
36378;BME280;22402;42.746;23.606;2022-09-27T04:17:54;92441.25;;;15.45;100.00
36378;BME280;22402;42.746;23.606;2022-09-27T04:20:20;92434.78;;;15.41;100.00
36378;BME280;22402;42.746;23.606;2022-09-27T04:22:45;92437.22;;;15.42;100.00
36378;BME280;22402;42.746;23.606;2022-09-27T04:25:11;92434.78;;;15.41;100.00
36378;BME280;22402;42.746;23.606;2022-09-27T04:27:36;92439.03;;;15.42;100.00
36378;BME280;22402;42.746;23.606;2022-09-27T04:30:03;92433.56;;;15.43;100.00
36378;BME280;22402;42.746;23.606;2022-09-27T04:32:28;92420.66;;;15.48;100.00
36378;BME280;22402;42.746;23.606;2022-09-27T04:34:54;92421.28;;;15.50;100.00
36378;BME280;22402;42.746;23.606;2022-09-27T04:37:19;92424.88;;;15.49;100.00
36378;BME280;22402;42.746;23.606;2022-09-27T04:39:44;92416.22;;;15.49;100.00
36378;BME280;22402;42.746;23.606;2022-09-27T04:42:10;92422.69;;;15.53;100.00
36378;BME280;22402;42.746;23.606;2022-09-27T04:44:35;92417.22;;;15.55;100.00
36378;BME280;22402;42.746;23.606;2022-09-27T04:47:00;92421.50;;;15.56;100.00
36378;BME280;22402;42.746;23.606;2022-09-27T04:49:26;92428.53;;;15.55;100.00
36378;BME280;22402;42.746;23.606;2022-09-27T04:51:51;92415.63;;;15.60;100.00
36378;BME280;22402;42.746;23.606;2022-09-27T04:54:16;92417.69;;;15.65;100.00
36378;BME280;22402;42.746;23.606;2022-09-27T04:56:41;92415.63;;;15.67;100.00
36378;BME280;22402;42.746;23.606;2022-09-27T04:59:08;92441.97;;;15.74;100.00
36378;BME280;22402;42.746;23.606;2022-09-27T05:01:33;92446.84;;;15.77;100.00
36378;BME280;22402;42.746;23.606;2022-09-27T05:03:59;92451.69;;;15.80;100.00
36378;BME280;22402;42.746;23.606;2022-09-27T05:06:24;92445.19;;;15.82;100.00
36378;BME280;22402;42.746;23.606;2022-09-27T05:08:50;92452.91;;;15.84;100.00
36378;BME280;22402;42.746;23.606;2022-09-27T05:11:15;92455.31;;;15.85;100.00
36378;BME280;22402;42.746;23.606;2022-09-27T05:13:40;92454.50;;;15.85;100.00
36378;BME280;22402;42.746;23.606;2022-09-27T05:16:06;92450.25;;;15.84;100.00
36378;BME280;22402;42.746;23.606;2022-09-27T05:18:32;92453.50;;;15.86;100.00
36378;BME280;22402;42.746;23.606;2022-09-27T05:20:57;92452.91;;;15.90;100.00
36378;BME280;22402;42.746;23.606;2022-09-27T05:23:22;92453.91;;;15.96;100.00
36378;BME280;22402;42.746;23.606;2022-09-27T05:25:48;92449.69;;;15.95;100.00
36378;BME280;22402;42.746;23.606;2022-09-27T05:28:13;92446.44;;;15.93;100.00
36378;BME280;22402;42.746;23.606;2022-09-27T05:30:38;92439.97;;;15.89;100.00
36378;BME280;22402;42.746;23.606;2022-09-27T05:33:04;92439.97;;;15.89;100.00
36378;BME280;22402;42.746;23.606;2022-09-27T05:35:29;92427.22;;;15.86;100.00
36378;BME280;22402;42.746;23.606;2022-09-27T05:37:58;92420.75;;;15.82;100.00
36378;BME280;22402;42.746;23.606;2022-09-27T05:40:24;92438.34;;;15.81;100.00
36378;BME280;22402;42.746;23.606;2022-09-27T05:42:51;92436.91;;;15.79;100.00
36378;BME280;22402;42.746;23.606;2022-09-27T05:45:17;92440.34;;;15.72;100.00
36378;BME280;22402;42.746;23.606;2022-09-27T05:47:43;92438.72;;;15.71;100.00
36378;BME280;22402;42.746;23.606;2022-09-27T05:50:08;92444.53;;;15.67;100.00
36378;BME280;22402;42.746;23.606;2022-09-27T05:52:33;92443.09;;;15.64;100.00
36378;BME280;22402;42.746;23.606;2022-09-27T05:54:58;92456.44;;;15.56;100.00
36378;BME280;22402;42.746;23.606;2022-09-27T05:57:24;92461.28;;;15.53;100.00
36378;BME280;22402;42.746;23.606;2022-09-27T05:59:49;92467.34;;;15.53;100.00
36378;BME280;22402;42.746;23.606;2022-09-27T06:02:15;92466.91;;;15.49;100.00
36378;BME280;22402;42.746;23.606;2022-09-27T06:04:40;92474.63;;;15.51;100.00
36378;BME280;22402;42.746;23.606;2022-09-27T06:07:06;92467.34;;;15.53;100.00
36378;BME280;22402;42.746;23.606;2022-09-27T06:09:32;92461.28;;;15.53;100.00
36378;BME280;22402;42.746;23.606;2022-09-27T06:11:57;92460.06;;;15.55;100.00
36378;BME280;22402;42.746;23.606;2022-09-27T06:14:22;92454.81;;;15.55;100.00
36378;BME280;22402;42.746;23.606;2022-09-27T06:16:48;92459.66;;;15.52;100.00
36378;BME280;22402;42.746;23.606;2022-09-27T06:19:13;92467.94;;;15.48;100.00
36378;BME280;22402;42.746;23.606;2022-09-27T06:21:39;92468.53;;;15.44;100.00
36378;BME280;22402;42.746;23.606;2022-09-27T06:24:04;92468.16;;;15.47;100.00
36378;BME280;22402;42.746;23.606;2022-09-27T06:26:30;92465.31;;;15.55;100.00
36378;BME280;22402;42.746;23.606;2022-09-27T06:28:55;92463.53;;;15.56;100.00
36378;BME280;22402;42.746;23.606;2022-09-27T06:31:21;92450.81;;;15.59;100.00
36378;BME280;22402;42.746;23.606;2022-09-27T06:33:48;92452.41;;;15.60;100.00
36378;BME280;22402;42.746;23.606;2022-09-27T06:36:13;92448.75;;;15.61;100.00
36378;BME280;22402;42.746;23.606;2022-09-27T06:38:39;92447.16;;;15.60;100.00
36378;BME280;22402;42.746;23.606;2022-09-27T06:41:05;92454.63;;;15.63;100.00
36378;BME280;22402;42.746;23.606;2022-09-27T06:43:31;92451.25;;;15.69;100.00
36378;BME280;22402;42.746;23.606;2022-09-27T06:46:00;92447.63;;;15.77;100.00
36378;BME280;22402;42.746;23.606;2022-09-27T06:48:26;92442.97;;;15.79;100.00
36378;BME280;22402;42.746;23.606;2022-09-27T06:50:52;92438.72;;;15.85;100.00
36378;BME280;22402;42.746;23.606;2022-09-27T06:53:17;92436.31;;;15.90;100.00
36378;BME280;22402;42.746;23.606;2022-09-27T06:55:43;92447.25;;;15.93;100.00
36378;BME280;22402;42.746;23.606;2022-09-27T06:58:09;92442.38;;;15.97;100.00
36378;BME280;22402;42.746;23.606;2022-09-27T07:00:35;92452.50;;;16.00;100.00
36378;BME280;22402;42.746;23.606;2022-09-27T07:03:00;92453.31;;;16.01;100.00
36378;BME280;22402;42.746;23.606;2022-09-27T07:05:27;92443.22;;;16.04;100.00
36378;BME280;22402;42.746;23.606;2022-09-27T07:07:52;92432.28;;;16.07;100.00
36378;BME280;22402;42.746;23.606;2022-09-27T07:10:18;92445.03;;;16.10;100.00
36378;BME280;22402;42.746;23.606;2022-09-27T07:12:43;92453.94;;;16.09;100.00
36378;BME280;22402;42.746;23.606;2022-09-27T07:15:09;92456.16;;;16.12;100.00
36378;BME280;22402;42.746;23.606;2022-09-27T07:17:34;92457.16;;;16.11;100.00
36378;BME280;22402;42.746;23.606;2022-09-27T07:19:59;92451.31;;;16.09;100.00
36378;BME280;22402;42.746;23.606;2022-09-27T07:22:25;92459.78;;;16.11;100.00
36378;BME280;22402;42.746;23.606;2022-09-27T07:24:50;92453.94;;;16.09;100.00
36378;BME280;22402;42.746;23.606;2022-09-27T07:27:15;92459.38;;;16.08;100.00
36378;BME280;22402;42.746;23.606;2022-09-27T07:29:41;92457.16;;;16.05;100.00
36378;BME280;22402;42.746;23.606;2022-09-27T07:32:06;92447.84;;;16.02;100.00
36378;BME280;22402;42.746;23.606;2022-09-27T07:34:32;92444.41;;;16.02;100.00
36378;BME280;22402;42.746;23.606;2022-09-27T07:36:59;92446.88;;;16.03;100.00
36378;BME280;22402;42.746;23.606;2022-09-27T07:39:25;92452.94;;;16.04;100.00
36378;BME280;22402;42.746;23.606;2022-09-27T07:41:50;92458.59;;;16.07;100.00
36378;BME280;22402;42.746;23.606;2022-09-27T07:44:16;92462.63;;;16.10;100.00
36378;BME280;22402;42.746;23.606;2022-09-27T07:46:41;92442.00;;;16.13;100.00
36378;BME280;22402;42.746;23.606;2022-09-27T07:49:06;92439.59;;;16.18;100.00
36378;BME280;22402;42.746;23.606;2022-09-27T07:51:32;92439.19;;;16.22;100.00
36378;BME280;22402;42.746;23.606;2022-09-27T07:53:57;92442.22;;;16.25;100.00
36378;BME280;22402;42.746;23.606;2022-09-27T07:56:23;92459.41;;;16.28;100.00
36378;BME280;22402;42.746;23.606;2022-09-27T07:58:48;92465.47;;;16.28;100.00
36378;BME280;22402;42.746;23.606;2022-09-27T08:01:13;92477.19;;;16.32;100.00
36378;BME280;22402;42.746;23.606;2022-09-27T08:03:39;92480.03;;;16.37;100.00
36378;BME280;22402;42.746;23.606;2022-09-27T08:06:04;92473.16;;;16.43;100.00
36378;BME280;22402;42.746;23.606;2022-09-27T08:08:30;92468.31;;;16.40;100.00
36378;BME280;22402;42.746;23.606;2022-09-27T08:10:55;92468.09;;;16.41;100.00
36378;BME280;22402;42.746;23.606;2022-09-27T08:13:21;92472.34;;;16.43;100.00
36378;BME280;22402;42.746;23.606;2022-09-27T08:15:46;92482.88;;;16.43;100.00
36378;BME280;22402;42.746;23.606;2022-09-27T08:18:12;92477.41;;;16.44;100.00
36378;BME280;22402;42.746;23.606;2022-09-27T08:20:37;92461.03;;;16.42;100.00
36378;BME280;22402;42.746;23.606;2022-09-27T08:23:02;92465.66;;;16.40;100.00
36378;BME280;22402;42.746;23.606;2022-09-27T08:25:28;92464.66;;;16.41;100.00
36378;BME280;22402;42.746;23.606;2022-09-27T08:27:57;92435.53;;;16.43;100.00
36378;BME280;22402;42.746;23.606;2022-09-27T08:30:23;92417.72;;;16.38;100.00
36378;BME280;22402;42.746;23.606;2022-09-27T08:32:54;92449.69;;;16.35;100.00
36378;BME280;22402;42.746;23.606;2022-09-27T08:35:19;92440.78;;;16.36;100.00
36378;BME280;22402;42.746;23.606;2022-09-27T09:10:12;92405.50;;;16.83;100.00
36378;BME280;22402;42.746;23.606;2022-09-27T09:12:59;92395.56;;;16.85;100.00
36378;BME280;22402;42.746;23.606;2022-09-27T09:15:44;92393.34;;;16.89;100.00
36378;BME280;22402;42.746;23.606;2022-09-27T09:19:11;92386.03;;;16.91;100.00
36378;BME280;22402;42.746;23.606;2022-09-27T09:24:32;92395.75;;;16.97;100.00
36378;BME280;22402;42.746;23.606;2022-09-27T09:30:24;92390.66;;;17.02;100.00
36378;BME280;22402;42.746;23.606;2022-09-27T09:38:40;92404.53;;;17.29;100.00
36378;BME280;22402;42.746;23.606;2022-09-27T09:43:51;92395.56;;;17.37;100.00
36378;BME280;22402;42.746;23.606;2022-09-27T09:48:48;92387.78;;;17.56;100.00
36378;BME280;22402;42.746;23.606;2022-09-27T09:51:19;92391.38;;;17.61;100.00
36378;BME280;22402;42.746;23.606;2022-09-27T09:54:02;92390.13;;;17.70;100.00
36378;BME280;22402;42.746;23.606;2022-09-27T09:56:39;92379.50;;;17.77;100.00
36378;BME280;22402;42.746;23.606;2022-09-27T10:02:20;92383.09;;;17.89;100.00
36378;BME280;22402;42.746;23.606;2022-09-27T10:04:49;92369.28;;;17.94;100.00
36378;BME280;22402;42.746;23.606;2022-09-27T10:07:18;92361.75;;;17.97;100.00
36378;BME280;22402;42.746;23.606;2022-09-27T10:09:44;92358.69;;;18.01;100.00
36378;BME280;22402;42.746;23.606;2022-09-27T10:12:10;92364.13;;;18.06;100.00
36378;BME280;22402;42.746;23.606;2022-09-27T10:14:35;92371.53;;;18.15;100.00
36378;BME280;22402;42.746;23.606;2022-09-27T10:17:05;92365.94;;;18.30;100.00
36378;BME280;22402;42.746;23.606;2022-09-27T10:19:34;92364.19;;;18.42;100.00
36378;BME280;22402;42.746;23.606;2022-09-27T10:22:10;92365.88;;;18.55;100.00
36378;BME280;22402;42.746;23.606;2022-09-27T10:25:05;92371.69;;;18.64;100.00
36378;BME280;22402;42.746;23.606;2022-09-27T10:27:40;92371.41;;;18.72;100.00
36378;BME280;22402;42.746;23.606;2022-09-27T10:30:27;92362.03;;;18.76;100.00
36378;BME280;22402;42.746;23.606;2022-09-27T10:32:57;92357.88;;;18.87;100.00
36378;BME280;22402;42.746;23.606;2022-09-27T10:38:21;92363.06;;;18.94;100.00
36378;BME280;22402;42.746;23.606;2022-09-27T10:40:52;92342.69;;;19.01;100.00
36378;BME280;22402;42.746;23.606;2022-09-27T10:43:28;92330.78;;;19.10;99.21
36378;BME280;22402;42.746;23.606;2022-09-27T10:49:16;92341.91;;;19.30;100.00
36378;BME280;22402;42.746;23.606;2022-09-27T10:51:44;92351.25;;;19.45;99.59
36378;BME280;22402;42.746;23.606;2022-09-27T10:54:38;92353.56;;;19.53;99.86
36378;BME280;22402;42.746;23.606;2022-09-27T10:59:40;92343.41;;;19.68;97.71
36378;BME280;22402;42.746;23.606;2022-09-27T11:02:30;92336.66;;;19.72;97.17
36378;BME280;22402;42.746;23.606;2022-09-27T11:07:31;92337.03;;;19.88;97.95
36378;BME280;22402;42.746;23.606;2022-09-27T11:09:57;92323.50;;;19.96;97.25
36378;BME280;22402;42.746;23.606;2022-09-27T11:12:23;92316.09;;;19.98;96.54
36378;BME280;22402;42.746;23.606;2022-09-27T11:15:01;92316.44;;;20.01;96.83
36378;BME280;22402;42.746;23.606;2022-09-27T11:17:36;92324.41;;;20.13;96.05
36378;BME280;22402;42.746;23.606;2022-09-27T11:39:05;92298.84;;;20.78;90.52
36378;BME280;22402;42.746;23.606;2022-09-27T11:44:45;92298.00;;;20.89;89.05
36378;BME280;22402;42.746;23.606;2022-09-27T11:53:19;92287.72;;;21.04;86.22
36378;BME280;22402;42.746;23.606;2022-09-27T12:09:22;92261.66;;;21.58;85.21
36378;BME280;22402;42.746;23.606;2022-09-27T12:11:52;92265.03;;;21.71;86.11
36378;BME280;22402;42.746;23.606;2022-09-27T12:14:26;92261.50;;;21.82;87.09
36378;BME280;22402;42.746;23.606;2022-09-27T12:16:55;92262.97;;;21.90;83.11
36378;BME280;22402;42.746;23.606;2022-09-27T12:19:28;92255.66;;;21.97;81.55
36378;BME280;22402;42.746;23.606;2022-09-27T12:21:56;92253.06;;;22.02;80.32
36378;BME280;22402;42.746;23.606;2022-09-27T12:24:22;92236.91;;;22.03;81.45
36378;BME280;22402;42.746;23.606;2022-09-27T12:26:51;92230.06;;;22.07;82.39
36378;BME280;22402;42.746;23.606;2022-09-27T12:29:20;92222.72;;;22.15;81.66
36378;BME280;22402;42.746;23.606;2022-09-27T12:31:58;92215.19;;;22.23;81.41
36378;BME280;22402;42.746;23.606;2022-09-27T12:34:38;92219.28;;;22.31;80.81
36378;BME280;22402;42.746;23.606;2022-09-27T12:37:11;92213.22;;;22.36;81.26
36378;BME280;22402;42.746;23.606;2022-09-27T12:42:16;92201.44;;;22.48;73.91
36378;BME280;22402;42.746;23.606;2022-09-27T12:44:44;92188.47;;;22.52;72.94
36378;BME280;22402;42.746;23.606;2022-09-27T12:53:16;92182.72;;;22.60;73.64
36378;BME280;22402;42.746;23.606;2022-09-27T12:56:34;92180.69;;;22.67;71.88
36378;BME280;22402;42.746;23.606;2022-09-27T13:01:41;92160.31;;;22.73;72.02
36378;BME280;22402;42.746;23.606;2022-09-27T13:10:21;92162.28;;;22.61;69.38
36378;BME280;22402;42.746;23.606;2022-09-27T13:12:52;92172.09;;;22.60;70.68
36378;BME280;22402;42.746;23.606;2022-09-27T13:15:25;92182.34;;;22.51;71.84
36378;BME280;22402;42.746;23.606;2022-09-27T13:17:53;92172.78;;;22.50;71.41
36378;BME280;22402;42.746;23.606;2022-09-27T13:25:52;92166.91;;;22.48;71.82
36378;BME280;22402;42.746;23.606;2022-09-27T13:30:58;92166.66;;;22.50;72.28
36378;BME280;22402;42.746;23.606;2022-09-27T13:36:28;92170.63;;;22.47;70.37
36378;BME280;22402;42.746;23.606;2022-09-27T13:41:22;92162.66;;;22.47;70.22
36378;BME280;22402;42.746;23.606;2022-09-27T13:46:21;92163.72;;;22.46;69.27
36378;BME280;22402;42.746;23.606;2022-09-27T13:48:59;92164.25;;;22.48;70.35
36378;BME280;22402;42.746;23.606;2022-09-27T13:51:34;92166.19;;;22.53;70.53
36378;BME280;22402;42.746;23.606;2022-09-27T13:54:05;92160.88;;;22.53;69.96
36378;BME280;22402;42.746;23.606;2022-09-27T13:59:05;92159.56;;;22.56;69.74
36378;BME280;22402;42.746;23.606;2022-09-27T14:01:38;92164.31;;;22.53;63.17
36378;BME280;22402;42.746;23.606;2022-09-27T14:06:40;92172.91;;;22.61;64.73
36378;BME280;22402;42.746;23.606;2022-09-27T14:09:17;92153.81;;;22.64;64.66
36378;BME280;22402;42.746;23.606;2022-09-27T14:11:49;92147.50;;;22.70;65.22
36378;BME280;22402;42.746;23.606;2022-09-27T14:14:19;92139.34;;;22.77;66.17
36378;BME280;22402;42.746;23.606;2022-09-27T14:16:46;92147.66;;;22.85;66.74
36378;BME280;22402;42.746;23.606;2022-09-27T14:19:17;92154.63;;;22.91;66.88
36378;BME280;22402;42.746;23.606;2022-09-27T14:22:09;92151.00;;;22.97;67.12
36378;BME280;22402;42.746;23.606;2022-09-27T14:29:52;92154.72;;;22.96;70.18
36378;BME280;22402;42.746;23.606;2022-09-27T14:32:20;92156.50;;;22.91;69.65
36378;BME280;22402;42.746;23.606;2022-09-27T14:37:29;92164.13;;;22.82;70.68
36378;BME280;22402;42.746;23.606;2022-09-27T14:39:58;92176.53;;;22.77;72.20
36378;BME280;22402;42.746;23.606;2022-09-27T14:42:25;92170.84;;;22.68;73.39
36378;BME280;22402;42.746;23.606;2022-09-27T14:44:52;92168.09;;;22.58;73.99
36378;BME280;22402;42.746;23.606;2022-09-27T14:47:24;92165.31;;;22.47;74.95
36378;BME280;22402;42.746;23.606;2022-09-27T14:50:01;92168.09;;;22.36;75.07
36378;BME280;22402;42.746;23.606;2022-09-27T14:52:38;92167.72;;;22.27;75.09
36378;BME280;22402;42.746;23.606;2022-09-27T14:55:08;92159.66;;;22.22;75.21
36378;BME280;22402;42.746;23.606;2022-09-27T14:57:34;92158.22;;;22.14;75.19
36378;BME280;22402;42.746;23.606;2022-09-27T15:00:16;92175.94;;;22.08;75.11
36378;BME280;22402;42.746;23.606;2022-09-27T15:02:42;92177.72;;;22.03;75.09
36378;BME280;22402;42.746;23.606;2022-09-27T15:05:16;92169.94;;;21.96;75.63
36378;BME280;22402;42.746;23.606;2022-09-27T15:07:46;92186.25;;;21.88;76.15
36378;BME280;22402;42.746;23.606;2022-09-27T15:10:17;92191.97;;;21.80;75.79
36378;BME280;22402;42.746;23.606;2022-09-27T15:12:49;92162.41;;;21.71;76.43
36378;BME280;22402;42.746;23.606;2022-09-27T15:15:21;92133.41;;;21.65;76.28
36378;BME280;22402;42.746;23.606;2022-09-27T15:17:47;92155.09;;;21.61;76.99
36378;BME280;22402;42.746;23.606;2022-09-27T15:20:25;92181.78;;;21.55;77.30
36378;BME280;22402;42.746;23.606;2022-09-27T15:22:51;92169.72;;;21.47;78.31
36378;BME280;22402;42.746;23.606;2022-09-27T15:25:25;92181.78;;;21.38;78.27
36378;BME280;22402;42.746;23.606;2022-09-27T15:27:55;92167.84;;;21.31;78.10
36378;BME280;22402;42.746;23.606;2022-09-27T15:30:26;92146.47;;;21.21;77.96
36378;BME280;22402;42.746;23.606;2022-09-27T15:32:53;92146.41;;;21.15;78.27
36378;BME280;22402;42.746;23.606;2022-09-27T15:35:24;92156.34;;;21.08;78.81
36378;BME280;22402;42.746;23.606;2022-09-27T15:37:50;92244.31;;;20.93;79.79
36378;BME280;22402;42.746;23.606;2022-09-27T15:43:20;92361.91;;;19.38;83.23
36378;BME280;22402;42.746;23.606;2022-09-27T15:45:51;92322.00;;;17.67;94.52
36378;BME280;22402;42.746;23.606;2022-09-27T15:48:18;92310.53;;;16.85;98.38
36378;BME280;22402;42.746;23.606;2022-09-27T15:50:45;92314.13;;;16.39;100.00
36378;BME280;22402;42.746;23.606;2022-09-27T15:53:10;92331.59;;;16.07;100.00
36378;BME280;22402;42.746;23.606;2022-09-27T15:55:42;92315.03;;;15.80;100.00
36378;BME280;22402;42.746;23.606;2022-09-27T15:58:13;92323.88;;;15.52;100.00
36378;BME280;22402;42.746;23.606;2022-09-27T16:00:53;92354.16;;;15.35;100.00
36378;BME280;22402;42.746;23.606;2022-09-27T16:03:19;92356.75;;;15.21;100.00
36378;BME280;22402;42.746;23.606;2022-09-27T16:05:44;92351.09;;;15.11;100.00
36378;BME280;22402;42.746;23.606;2022-09-27T16:08:10;92337.13;;;15.04;100.00
36378;BME280;22402;42.746;23.606;2022-09-27T16:10:37;92322.16;;;14.98;100.00
36378;BME280;22402;42.746;23.606;2022-09-27T16:13:03;92316.13;;;14.91;100.00